Time;durP1;ratioP1;P1;durP2;ratioP2;P2;SDS_P1;SDS_P2;PMS_P1;PMS_P2;Temp;Humidity;BMP_temperature;BMP_pressure;BME280_temperature;BME280_humidity;BME280_pressure;Samples;Min_cycle;Max_cycle;Signal;HPM_P1;HPM_P2
2023/10/18 00:02:49;;;;;;;;;;;4.90;99.90;;;;;;5098801;28;19916;-65
2023/10/18 00:05:20;;;;;;;;;;;4.90;99.90;;;;;;5099102;28;20361;-65
2023/10/18 00:07:49;;;;;;;;;;;4.80;99.90;;;;;;5099006;28;20004;-65
2023/10/18 00:10:17;;;;;;;;;;;4.70;99.90;;;;;;5098684;28;20379;-65
2023/10/18 00:12:46;;;;;;;;;;;4.70;99.90;;;;;;5087316;28;19913;-65
2023/10/18 00:15:11;;;;;;;;;;;4.70;99.90;;;;;;5078787;28;20331;-65
2023/10/18 00:17:38;;;;;;;;;;;4.50;99.90;;;;;;5091405;28;19918;-64
2023/10/18 00:20:13;;;;;;;;;;;4.40;99.90;;;;;;5098866;28;19946;-65
2023/10/18 00:22:42;;;;;;;;;;;4.40;99.90;;;;;;5098803;28;20246;-65
2023/10/18 00:25:10;;;;;;;;;;;4.40;99.90;;;;;;5097952;28;19919;-65
2023/10/18 00:27:37;;;;;;;;;;;4.30;99.90;;;;;;5098598;28;20381;-65
2023/10/18 00:30:07;;;;;;;;;;;4.30;99.90;;;;;;5097130;28;20377;-65
2023/10/18 00:32:35;;;;;;;;;;;4.30;99.90;;;;;;5098404;28;19912;-65
2023/10/18 00:35:12;;;;;;;;;;;4.30;99.90;;;;;;5097303;28;19912;-65
2023/10/18 00:37:41;;;;;;;;;;;4.40;99.90;;;;;;5098574;28;19912;-65
2023/10/18 00:40:09;;;;;;;;;;;4.40;99.90;;;;;;5098193;28;20400;-65
2023/10/18 00:42:36;;;;;;;;;;;4.50;99.90;;;;;;5097110;28;19912;-65
2023/10/18 00:45:02;;;;;;;;;;;4.50;99.90;;;;;;5098388;28;19912;-65
2023/10/18 00:47:30;;;;;;;;;;;4.50;99.90;;;;;;5096702;28;19920;-65
2023/10/18 00:49:57;;;;;;;;;;;4.40;99.90;;;;;;5098173;28;20297;-65
2023/10/18 00:52:28;;;;;;;;;;;4.50;99.90;;;;;;5098254;28;19916;-65
2023/10/18 00:54:53;;;;;;;;;;;4.40;99.90;;;;;;5097979;28;20295;-65
2023/10/18 00:57:22;;;;;;;;;;;4.40;99.90;;;;;;5096815;28;19912;-65
2023/10/18 00:59:51;;;;;;;;;;;4.40;99.90;;;;;;5098118;28;20052;-65
2023/10/18 01:02:19;;;;;;;;;;;4.60;99.90;;;;;;5097636;28;20338;-65
2023/10/18 01:04:46;;;;;;;;;;;4.60;99.90;;;;;;5098016;28;19943;-65
2023/10/18 01:07:14;;;;;;;;;;;4.50;99.90;;;;;;5096424;28;20402;-65
2023/10/18 01:09:47;;;;;;;;;;;4.60;99.90;;;;;;5096411;28;19920;-65
2023/10/18 01:12:14;;;;;;;;;;;4.60;99.90;;;;;;5089013;28;19920;-65
2023/10/18 01:14:42;;;;;;;;;;;4.60;99.90;;;;;;5073704;28;19995;-65
2023/10/18 01:17:08;;;;;;;;;;;4.50;99.90;;;;;;5084900;28;19965;-65
2023/10/18 01:19:35;;;;;;;;;;;4.50;99.90;;;;;;5096520;28;19916;-65
2023/10/18 01:22:03;;;;;;;;;;;4.50;99.90;;;;;;5095812;28;20263;-65
2023/10/18 01:24:35;;;;;;;;;;;4.40;99.90;;;;;;5075554;28;19958;-65
2023/10/18 01:27:04;;;;;;;;;;;4.40;99.90;;;;;;5075956;28;19917;-65
2023/10/18 01:29:30;;;;;;;;;;;4.50;99.90;;;;;;5075858;28;19982;-65
2023/10/18 01:31:56;;;;;;;;;;;4.50;99.90;;;;;;5076913;28;19912;-65
2023/10/18 01:34:22;;;;;;;;;;;4.40;99.90;;;;;;5077145;28;19913;-65
2023/10/18 01:36:49;;;;;;;;;;;4.50;99.90;;;;;;5076425;28;20258;-65
2023/10/18 01:39:20;;;;;;;;;;;4.50;99.90;;;;;;5076946;28;20278;-65
2023/10/18 01:41:50;;;;;;;;;;;4.50;99.90;;;;;;5076910;28;19936;-65
2023/10/18 01:44:35;;;;;;;;;;;4.50;99.90;;;;;;5075634;28;19919;-65
2023/10/18 01:47:09;;;;;;;;;;;4.50;99.90;;;;;;5076838;28;19924;-65
2023/10/18 01:49:40;;;;;;;;;;;4.30;99.90;;;;;;5075669;28;20003;-65
2023/10/18 01:52:08;;;;;;;;;;;4.30;99.90;;;;;;5075509;28;19966;-65
2023/10/18 01:54:34;;;;;;;;;;;4.30;99.90;;;;;;5075465;28;19923;-65
2023/10/18 01:57:00;;;;;;;;;;;4.30;99.90;;;;;;5075408;28;20381;-65
2023/10/18 01:59:27;;;;;;;;;;;4.50;99.90;;;;;;5075195;28;19920;-65
2023/10/18 02:01:54;;;;;;;;;;;4.30;99.90;;;;;;5076529;28;19978;-65
2023/10/18 02:04:41;;;;;;;;;;;4.40;99.90;;;;;;5076584;28;19913;-65
2023/10/18 02:07:07;;;;;;;;;;;4.50;99.90;;;;;;5091472;28;19920;-65
2023/10/18 02:09:36;;;;;;;;;;;4.40;99.90;;;;;;5075236;28;20257;-65
2023/10/18 02:12:06;;;;;;;;;;;4.40;99.90;;;;;;5076277;28;19968;-65
2023/10/18 02:14:33;;;;;;;;;;;4.30;99.90;;;;;;5074812;28;20406;-65
2023/10/18 02:16:59;;;;;;;;;;;4.20;99.90;;;;;;5082865;28;19915;-65
2023/10/18 02:19:26;;;;;;;;;;;4.10;99.90;;;;;;5095567;28;19954;-65
2023/10/18 02:21:54;;;;;;;;;;;3.90;99.90;;;;;;5096355;28;19915;-65
2023/10/18 02:24:20;;;;;;;;;;;3.90;99.90;;;;;;5096538;28;20365;-65
2023/10/18 02:26:55;;;;;;;;;;;3.90;99.90;;;;;;5094896;28;19967;-65
2023/10/18 02:29:21;;;;;;;;;;;3.70;99.90;;;;;;5096252;28;19919;-65
2023/10/18 02:31:47;;;;;;;;;;;3.60;99.90;;;;;;5096345;28;20110;-65
2023/10/18 02:34:14;;;;;;;;;;;3.60;99.90;;;;;;5096376;28;20152;-65
2023/10/18 02:36:40;;;;;;;;;;;3.60;99.90;;;;;;5094845;28;19908;-65
2023/10/18 02:39:07;;;;;;;;;;;3.50;99.90;;;;;;5095078;28;19998;-65
2023/10/18 02:41:34;;;;;;;;;;;3.60;99.90;;;;;;5096368;28;20061;-65
2023/10/18 02:44:00;;;;;;;;;;;3.70;99.90;;;;;;5094691;28;19912;-65
2023/10/18 02:46:26;;;;;;;;;;;3.70;99.90;;;;;;5094540;28;19916;-65
2023/10/18 02:48:56;;;;;;;;;;;3.70;99.90;;;;;;5094651;28;19912;-65
2023/10/18 02:51:22;;;;;;;;;;;3.70;99.90;;;;;;5095855;28;19912;-65
2023/10/18 02:54:00;;;;;;;;;;;3.60;99.90;;;;;;5096219;28;19989;-65
2023/10/18 02:56:32;;;;;;;;;;;3.50;99.90;;;;;;5094905;28;19967;-65
2023/10/18 02:58:59;;;;;;;;;;;3.40;99.90;;;;;;5095863;28;19913;-65
2023/10/18 03:01:25;;;;;;;;;;;3.40;99.90;;;;;;5095846;28;19916;-65
2023/10/18 03:03:55;;;;;;;;;;;3.30;99.90;;;;;;5096048;28;20006;-65
2023/10/18 03:06:27;;;;;;;;;;;3.30;99.90;;;;;;5094442;28;20353;-65
2023/10/18 03:08:57;;;;;;;;;;;3.20;99.90;;;;;;5094761;28;20007;-65
2023/10/18 03:11:23;;;;;;;;;;;3.20;99.90;;;;;;5094188;28;20452;-64
2023/10/18 03:13:51;;;;;;;;;;;3.10;99.90;;;;;;5073697;28;19944;-65
2023/10/18 03:16:27;;;;;;;;;;;3.10;99.90;;;;;;5076297;28;19912;-65
2023/10/18 03:18:53;;;;;;;;;;;3.10;99.90;;;;;;5094734;28;19925;-65
2023/10/18 03:21:22;;;;;;;;;;;3.10;99.90;;;;;;5095563;28;20442;-65
2023/10/18 03:23:50;;;;;;;;;;;3.10;99.90;;;;;;5081282;28;19912;-65
2023/10/18 03:26:22;;;;;;;;;;;3.10;99.90;;;;;;5075321;28;19917;-65
2023/10/18 03:28:52;;;;;;;;;;;3.00;99.90;;;;;;5074152;28;19912;-65
2023/10/18 03:31:21;;;;;;;;;;;3.00;99.90;;;;;;5074179;28;20284;-65
2023/10/18 03:34:02;;;;;;;;;;;3.00;99.90;;;;;;5075551;28;19917;-65
2023/10/18 03:36:32;;;;;;;;;;;2.90;99.90;;;;;;5075329;28;19920;-65
2023/10/18 03:39:00;;;;;;;;;;;2.90;99.90;;;;;;5074371;28;20328;-65
2023/10/18 03:41:32;;;;;;;;;;;2.90;99.90;;;;;;5074378;28;20429;-65
2023/10/18 03:44:08;;;;;;;;;;;2.80;99.90;;;;;;5073930;28;19918;-65
2023/10/18 03:47:36;;;;;;;;;;;2.80;99.90;;;;;;5075359;28;20411;-65
2023/10/18 03:51:56;;;;;;;;;;;2.80;99.90;;;;;;5073795;28;20304;-64
2023/10/18 03:54:27;;;;;;;;;;;2.80;99.90;;;;;;5074127;28;19995;-64
2023/10/18 03:56:54;;;;;;;;;;;2.80;99.90;;;;;;5073994;28;19958;-64
2023/10/18 03:59:25;;;;;;;;;;;2.80;99.90;;;;;;5073763;28;20323;-65
2023/10/18 04:04:37;;;;;;;;;;;2.70;99.90;;;;;;5078776;28;19934;-64
2023/10/18 04:07:12;;;;;;;;;;;2.70;99.90;;;;;;5078455;28;19920;-64
2023/10/18 04:09:40;;;;;;;;;;;2.60;99.90;;;;;;5078905;28;20352;-64
2023/10/18 04:12:07;;;;;;;;;;;2.60;99.90;;;;;;5078593;28;19920;-64
2023/10/18 04:14:33;;;;;;;;;;;2.60;99.90;;;;;;5078510;28;19916;-64
2023/10/18 04:17:03;;;;;;;;;;;2.50;99.90;;;;;;5086480;28;20277;-64
2023/10/18 04:19:28;;;;;;;;;;;2.50;99.90;;;;;;5098964;28;20270;-65
2023/10/18 04:21:54;;;;;;;;;;;2.60;99.90;;;;;;5098627;28;19919;-64
2023/10/18 04:24:23;;;;;;;;;;;2.50;99.90;;;;;;5098654;28;19962;-64
2023/10/18 04:26:52;;;;;;;;;;;2.50;99.90;;;;;;5098711;28;20372;-64
2023/10/18 04:29:26;;;;;;;;;;;2.60;99.90;;;;;;5098523;28;19989;-64
2023/10/18 04:31:56;;;;;;;;;;;2.60;99.90;;;;;;5098970;28;19912;-65
2023/10/18 04:34:22;;;;;;;;;;;2.50;99.90;;;;;;5097173;28;19915;-64
2023/10/18 04:36:51;;;;;;;;;;;2.50;99.90;;;;;;5098312;28;19964;-64
2023/10/18 04:39:20;;;;;;;;;;;2.50;99.90;;;;;;5098506;28;20080;-64
2023/10/18 04:41:45;;;;;;;;;;;2.50;99.90;;;;;;5098466;28;19912;-64
2023/10/18 04:44:18;;;;;;;;;;;2.40;99.90;;;;;;5098129;28;19919;-64
2023/10/18 04:46:47;;;;;;;;;;;2.40;99.90;;;;;;5098272;28;19916;-64
2023/10/18 04:54:09;;;;;;;;;;;2.30;99.90;;;;;;5098281;28;20381;-64
2023/10/18 04:56:37;;;;;;;;;;;2.30;99.90;;;;;;5097924;28;19912;-64
2023/10/18 04:59:10;;;;;;;;;;;2.30;99.90;;;;;;5097976;28;19941;-64
2023/10/18 05:01:41;;;;;;;;;;;2.30;99.90;;;;;;5097993;28;19932;-64
2023/10/18 05:07:03;;;;;;;;;;;2.30;99.90;;;;;;5097980;28;19922;-66
2023/10/18 05:12:16;;;;;;;;;;;2.40;99.90;;;;;;5092329;28;19920;-66
2023/10/18 05:14:42;;;;;;;;;;;2.50;99.90;;;;;;5077339;28;20018;-66
2023/10/18 05:17:17;;;;;;;;;;;2.50;99.90;;;;;;5086657;28;19908;-66
2023/10/18 05:19:43;;;;;;;;;;;2.60;99.90;;;;;;5096155;28;19920;-66
2023/10/18 05:22:09;;;;;;;;;;;2.60;99.90;;;;;;5096823;28;19919;-66
2023/10/18 05:24:39;;;;;;;;;;;2.70;99.90;;;;;;5097509;28;19912;-65
2023/10/18 05:27:19;;;;;;;;;;;2.70;99.90;;;;;;5094547;28;19923;-66
2023/10/18 05:29:51;;;;;;;;;;;2.70;99.90;;;;;;5057327;28;19913;-66
2023/10/18 05:33:47;;;;;;;;;;;2.90;99.90;;;;;;5062322;28;19912;-65
2023/10/18 05:35:19;;;;;;;;;;;3.30;99.90;;;;;;5063250;28;20281;-65
2023/10/18 05:37:50;;;;;;;;;;;3.70;99.90;;;;;;5077517;28;19912;-66
2023/10/18 05:43:51;;;;;;;;;;;4.40;99.90;;;;;;5076652;28;20293;-66
2023/10/18 05:46:03;;;;;;;;;;;4.70;99.90;;;;;;5069162;28;19939;-66
2023/10/18 05:48:32;;;;;;;;;;;5.20;99.90;;;;;;5075345;28;20274;-66
2023/10/18 05:51:26;;;;;;;;;;;5.40;99.90;;;;;;5075922;28;20382;-66
2023/10/18 05:53:52;;;;;;;;;;;5.30;99.90;;;;;;5076057;28;19920;-66
2023/10/18 05:56:22;;;;;;;;;;;5.60;99.90;;;;;;5070047;28;20322;-66
2023/10/18 05:59:15;;;;;;;;;;;5.80;99.90;;;;;;5076371;28;20277;-66
2023/10/18 06:01:34;;;;;;;;;;;5.70;99.90;;;;;;5072209;28;19924;-66
2023/10/18 06:03:59;;;;;;;;;;;5.70;99.90;;;;;;5075824;28;19916;-66
2023/10/18 06:06:25;;;;;;;;;;;5.80;99.90;;;;;;5075548;28;19967;-66
2023/10/18 06:08:57;;;;;;;;;;;5.90;99.90;;;;;;5075839;28;20340;-66
2023/10/18 06:11:23;;;;;;;;;;;5.90;99.90;;;;;;5075658;28;19916;-66
2023/10/18 06:13:48;;;;;;;;;;;6.50;99.90;;;;;;5076254;28;19991;-66
2023/10/18 06:16:20;;;;;;;;;;;6.80;99.90;;;;;;5080883;28;19985;-66
2023/10/18 06:18:46;;;;;;;;;;;7.00;99.90;;;;;;5095474;28;19943;-66
2023/10/18 06:21:21;;;;;;;;;;;6.90;99.90;;;;;;5096359;28;19912;-66
2023/10/18 06:23:56;;;;;;;;;;;7.40;99.90;;;;;;5074572;28;19966;-66
2023/10/18 06:26:28;;;;;;;;;;;7.70;98.20;;;;;;5075638;28;19920;-66
2023/10/18 06:29:00;;;;;;;;;;;8.00;99.20;;;;;;5076184;28;19923;-66
2023/10/18 06:31:27;;;;;;;;;;;8.10;97.90;;;;;;5075825;28;20003;-63
2023/10/18 06:33:56;;;;;;;;;;;8.40;96.50;;;;;;5075185;28;19924;-64
2023/10/18 06:36:24;;;;;;;;;;;8.70;96.10;;;;;;5074643;28;20354;-64
2023/10/18 06:38:51;;;;;;;;;;;9.10;95.40;;;;;;5075868;28;19912;-64
2023/10/18 06:41:19;;;;;;;;;;;9.40;94.30;;;;;;5074380;28;19913;-64
2023/10/18 06:43:45;;;;;;;;;;;9.30;92.70;;;;;;5076119;28;19913;-64
2023/10/18 06:46:15;;;;;;;;;;;9.40;92.40;;;;;;5076389;28;19912;-64
2023/10/18 06:48:43;;;;;;;;;;;9.90;92.00;;;;;;5076028;28;19913;-64
2023/10/18 06:51:17;;;;;;;;;;;10.00;92.00;;;;;;5076331;28;19908;-64
2023/10/18 06:53:50;;;;;;;;;;;10.00;90.20;;;;;;5076262;28;19913;-64
2023/10/18 06:56:26;;;;;;;;;;;10.10;90.70;;;;;;5076094;28;19977;-65
2023/10/18 06:58:53;;;;;;;;;;;10.30;89.00;;;;;;5076089;28;19913;-64
2023/10/18 07:01:26;;;;;;;;;;;10.80;86.60;;;;;;5075514;28;19938;-64
2023/10/18 07:03:52;;;;;;;;;;;10.90;86.20;;;;;;5075128;28;19912;-64
2023/10/18 07:06:24;;;;;;;;;;;11.50;85.70;;;;;;5075726;28;19913;-65
2023/10/18 07:08:50;;;;;;;;;;;11.60;81.90;;;;;;5075694;28;19920;-64
2023/10/18 07:11:16;;;;;;;;;;;11.50;82.10;;;;;;5075721;28;19913;-64
2023/10/18 07:13:46;;;;;;;;;;;11.60;81.70;;;;;;5075264;28;19947;-64
2023/10/18 07:16:13;;;;;;;;;;;11.80;82.80;;;;;;5075379;28;19966;-64
2023/10/18 07:18:44;;;;;;;;;;;12.40;80.50;;;;;;5075359;28;20037;-64
2023/10/18 07:21:11;;;;;;;;;;;11.50;79.60;;;;;;5075727;28;19944;-65
2023/10/18 07:23:37;;;;;;;;;;;11.90;79.90;;;;;;5076263;28;19913;-65
2023/10/18 07:26:15;;;;;;;;;;;12.30;77.50;;;;;;5075492;28;19916;-65
2023/10/18 07:28:43;;;;;;;;;;;13.10;77.80;;;;;;5076060;28;19917;-65
2023/10/18 07:31:10;;;;;;;;;;;13.20;72.90;;;;;;5075792;28;19955;-65
2023/10/18 07:33:40;;;;;;;;;;;13.00;73.30;;;;;;5074943;28;19919;-65
2023/10/18 07:36:09;;;;;;;;;;;13.30;71.80;;;;;;5077867;28;20274;-65
2023/10/18 07:38:37;;;;;;;;;;;13.40;71.10;;;;;;5079168;28;19908;-65
2023/10/18 07:41:04;;;;;;;;;;;13.20;72.10;;;;;;5078978;28;19923;-65
2023/10/18 07:43:32;;;;;;;;;;;13.20;73.20;;;;;;5079203;28;19912;-65
2023/10/18 07:45:58;;;;;;;;;;;13.30;73.60;;;;;;5064861;28;19920;-65
2023/10/18 07:48:24;;;;;;;;;;;13.60;73.30;;;;;;5058723;28;19928;-65
2023/10/18 07:50:50;;;;;;;;;;;13.90;70.80;;;;;;5058956;28;19912;-65
2023/10/18 07:53:16;;;;;;;;;;;13.80;71.40;;;;;;5058992;28;19919;-65
2023/10/18 07:55:42;;;;;;;;;;;13.90;70.20;;;;;;5058624;28;19920;-65
2023/10/18 07:58:24;;;;;;;;;;;14.20;70.00;;;;;;5058790;28;20270;-65
2023/10/18 08:03:31;;;;;;;;;;;13.90;70.40;;;;;;5058504;28;19916;-65
2023/10/18 08:05:59;;;;;;;;;;;14.00;69.00;;;;;;5058949;28;19913;-65
2023/10/18 08:08:25;;;;;;;;;;;14.10;68.70;;;;;;5058473;28;19940;-64
2023/10/18 08:10:53;;;;;;;;;;;14.10;71.30;;;;;;5058461;28;19974;-65
2023/10/18 08:13:25;;;;;;;;;;;14.10;68.60;;;;;;5074757;28;19919;-65
2023/10/18 08:15:55;;;;;;;;;;;14.50;68.80;;;;;;5078573;28;20042;-65
2023/10/18 08:21:07;;;;;;;;;;;14.30;67.40;;;;;;5098736;28;19919;-65
2023/10/18 08:26:04;;;;;;;;;;;14.20;68.10;;;;;;5098297;28;20269;-65
2023/10/18 08:28:40;;;;;;;;;;;14.10;70.40;;;;;;5098743;28;19923;-65
2023/10/18 08:31:10;;;;;;;;;;;14.10;73.20;;;;;;5098644;28;19919;-65
2023/10/18 08:33:35;;;;;;;;;;;14.80;72.20;;;;;;5098418;28;20412;-65
2023/10/18 08:36:07;;;;;;;;;;;15.80;65.70;;;;;;5098525;28;19908;-65
2023/10/18 08:38:33;;;;;;;;;;;15.90;65.00;;;;;;5098449;28;19916;-65
2023/10/18 08:41:14;;;;;;;;;;;16.00;63.80;;;;;;5098006;28;19969;-65
2023/10/18 08:43:49;;;;;;;;;;;16.50;63.50;;;;;;5098473;28;20334;-65
2023/10/18 08:46:16;;;;;;;;;;;16.30;61.60;;;;;;5097427;28;20024;-65
2023/10/18 08:48:42;;;;;;;;;;;16.40;64.80;;;;;;5098236;28;20345;-65
2023/10/18 08:51:09;;;;;;;;;;;17.10;60.50;;;;;;5089636;28;20317;-65
2023/10/18 08:53:35;;;;;;;;;;;16.20;60.60;;;;;;5077859;28;19913;-65
2023/10/18 08:56:05;;;;;;;;;;;16.80;60.90;;;;;;5077966;28;20014;-65
2023/10/18 08:58:33;;;;;;;;;;;18.00;58.60;;;;;;5077762;28;20374;-65
2023/10/18 09:03:27;;;;;;;;;;;18.10;55.20;;;;;;5077565;28;20328;-65
2023/10/18 09:06:04;;;;;;;;;;;18.00;55.40;;;;;;5094279;28;20017;-65
2023/10/18 09:08:38;;;;;;;;;;;18.20;54.90;;;;;;5094489;28;20003;-65
2023/10/18 09:11:20;;;;;;;;;;;19.30;54.10;;;;;;5077857;28;19951;-65
2023/10/18 09:14:07;;;;;;;;;;;20.00;51.40;;;;;;5077345;28;19913;-66
2023/10/18 09:16:36;;;;;;;;;;;19.60;49.20;;;;;;5077639;28;19913;-66
2023/10/18 09:19:01;;;;;;;;;;;20.10;48.40;;;;;;5078077;28;19912;-66
2023/10/18 09:21:36;;;;;;;;;;;20.00;46.40;;;;;;5076236;28;19916;-66
2023/10/18 09:24:06;;;;;;;;;;;20.70;44.10;;;;;;5077593;28;19987;-66
2023/10/18 09:26:50;;;;;;;;;;;20.60;44.30;;;;;;5077789;28;19916;-66
2023/10/18 09:29:17;;;;;;;;;;;20.60;44.90;;;;;;5077645;28;19912;-66
2023/10/18 09:32:02;;;;;;;;;;;20.80;44.00;;;;;;5077542;28;19913;-66
2023/10/18 09:34:33;;;;;;;;;;;20.90;43.20;;;;;;5077265;28;19952;-66
2023/10/18 09:36:59;;;;;;;;;;;20.40;43.80;;;;;;5076645;28;19912;-66
2023/10/18 09:39:37;;;;;;;;;;;21.00;43.70;;;;;;5076823;28;19909;-66
2023/10/18 09:42:06;;;;;;;;;;;21.40;41.90;;;;;;5077098;28;19912;-66
2023/10/18 09:44:32;;;;;;;;;;;21.40;43.40;;;;;;5075962;28;20422;-66
2023/10/18 09:46:59;;;;;;;;;;;21.60;39.90;;;;;;5076100;28;19917;-66
2023/10/18 09:49:26;;;;;;;;;;;21.90;41.00;;;;;;5076647;28;20344;-66
2023/10/18 09:51:56;;;;;;;;;;;22.20;40.70;;;;;;5076480;28;19912;-66
2023/10/18 09:54:22;;;;;;;;;;;21.40;39.20;;;;;;5076613;28;19920;-66
2023/10/18 09:56:52;;;;;;;;;;;21.50;40.70;;;;;;5076505;28;20247;-66
2023/10/18 09:59:26;;;;;;;;;;;21.80;38.80;;;;;;5073459;28;20019;-66
2023/10/18 10:02:07;;;;;;;;;;;22.30;39.30;;;;;;5075303;28;20394;-66
2023/10/18 10:04:35;;;;;;;;;;;22.50;38.90;;;;;;5076426;28;19919;-66
2023/10/18 10:09:48;;;;;;;;;;;22.70;37.50;;;;;;5076476;28;19918;-66
2023/10/18 10:12:17;;;;;;;;;;;23.50;36.20;;;;;;5076576;28;19913;-66
2023/10/18 10:14:43;;;;;;;;;;;23.70;35.40;;;;;;5076637;28;19974;-66
2023/10/18 10:17:11;;;;;;;;;;;23.50;34.50;;;;;;5075984;28;19920;-66
2023/10/18 10:19:40;;;;;;;;;;;23.00;36.20;;;;;;5076769;28;19912;-66
2023/10/18 10:22:07;;;;;;;;;;;23.20;34.90;;;;;;5076161;28;19965;-67
2023/10/18 10:24:42;;;;;;;;;;;23.10;34.30;;;;;;5075934;28;20065;-66
2023/10/18 10:29:58;;;;;;;;;;;23.10;35.20;;;;;;5072825;28;19920;-66
2023/10/18 10:32:24;;;;;;;;;;;22.60;34.20;;;;;;5075379;28;19916;-66
2023/10/18 10:35:10;;;;;;;;;;;22.10;36.60;;;;;;5076032;28;20281;-66
2023/10/18 10:37:44;;;;;;;;;;;22.10;37.10;;;;;;5075432;28;19973;-66
2023/10/18 10:41:13;;;;;;;;;;;22.70;37.10;;;;;;5076006;28;19912;-66
2023/10/18 10:43:01;;;;;;;;;;;23.10;35.60;;;;;;5072588;28;19916;-66
2023/10/18 10:51:06;;;;;;;;;;;23.20;35.90;;;;;;5075807;28;20347;-66
2023/10/18 10:53:33;;;;;;;;;;;23.20;34.70;;;;;;5090355;28;19913;-66
2023/10/18 10:56:17;;;;;;;;;;;22.60;35.70;;;;;;5075678;28;19915;-66
2023/10/18 10:59:03;;;;;;;;;;;22.60;35.80;;;;;;5075728;28;19918;-66
2023/10/18 11:04:27;;;;;;;;;;;22.50;38.00;;;;;;5075262;28;19916;-66
2023/10/18 11:06:56;;;;;;;;;;;22.20;36.60;;;;;;5065009;28;19952;-66
2023/10/18 11:09:29;;;;;;;;;;;22.50;36.40;;;;;;5070248;28;19944;-66
2023/10/18 11:11:56;;;;;;;;;;;22.40;36.10;;;;;;5082180;28;19934;-66
2023/10/18 11:14:27;;;;;;;;;;;22.60;35.50;;;;;;5081727;28;20328;-66
2023/10/18 11:19:44;;;;;;;;;;;22.90;35.50;;;;;;5102652;28;19948;-66
2023/10/18 11:22:11;;;;;;;;;;;22.70;35.90;;;;;;5101996;28;20369;-66
2023/10/18 11:24:39;;;;;;;;;;;22.70;34.50;;;;;;5102399;28;20006;-66
2023/10/18 11:27:08;;;;;;;;;;;22.70;35.10;;;;;;5102463;28;19923;-66
2023/10/18 11:29:38;;;;;;;;;;;22.80;35.00;;;;;;5095084;28;19912;-66
2023/10/18 11:32:07;;;;;;;;;;;22.90;36.10;;;;;;5081894;28;19916;-65
2023/10/18 11:34:45;;;;;;;;;;;22.50;34.90;;;;;;5079536;28;20433;-66
2023/10/18 11:37:26;;;;;;;;;;;21.90;38.00;;;;;;5072444;28;19912;-66
2023/10/18 11:39:55;;;;;;;;;;;21.70;37.30;;;;;;5081939;28;19919;-66
2023/10/18 11:42:21;;;;;;;;;;;21.50;37.50;;;;;;5081894;28;19912;-66
2023/10/18 11:44:52;;;;;;;;;;;21.60;37.00;;;;;;5081499;28;20421;-66
2023/10/18 11:47:20;;;;;;;;;;;21.50;37.70;;;;;;5081163;28;19984;-66
2023/10/18 11:49:52;;;;;;;;;;;21.60;37.70;;;;;;5061916;28;19913;-66
2023/10/18 11:52:22;;;;;;;;;;;21.80;38.10;;;;;;5062449;28;19913;-66
2023/10/18 11:54:54;;;;;;;;;;;22.50;36.60;;;;;;5081248;28;19912;-66
2023/10/18 11:57:46;;;;;;;;;;;22.90;35.00;;;;;;5081994;28;19962;-66
2023/10/18 12:02:54;;;;;;;;;;;22.30;35.90;;;;;;5081339;28;19923;-66
2023/10/18 12:05:29;;;;;;;;;;;22.60;35.80;;;;;;5079516;28;19925;-66
2023/10/18 12:08:01;;;;;;;;;;;22.90;35.60;;;;;;5081352;28;19916;-66
2023/10/18 12:10:34;;;;;;;;;;;22.50;35.10;;;;;;5081860;28;19962;-66
2023/10/18 12:13:02;;;;;;;;;;;23.00;37.00;;;;;;5081293;28;19916;-66
2023/10/18 12:15:30;;;;;;;;;;;23.40;35.50;;;;;;5081581;28;19974;-66
2023/10/18 12:17:56;;;;;;;;;;;22.80;34.90;;;;;;5097377;28;19935;-66
2023/10/18 12:20:34;;;;;;;;;;;23.10;36.10;;;;;;5100598;28;19911;-66
2023/10/18 12:23:04;;;;;;;;;;;23.50;34.90;;;;;;5098397;28;20360;-66
2023/10/18 12:25:32;;;;;;;;;;;23.10;34.80;;;;;;5098616;28;20005;-66
2023/10/18 12:28:00;;;;;;;;;;;23.40;34.40;;;;;;5098623;28;19923;-66
2023/10/18 12:30:34;;;;;;;;;;;23.00;34.20;;;;;;5083671;28;19912;-67
2023/10/18 12:33:05;;;;;;;;;;;23.10;35.20;;;;;;5078438;28;19913;-67
2023/10/18 12:35:31;;;;;;;;;;;22.50;35.80;;;;;;5078384;28;19990;-67
2023/10/18 12:37:56;;;;;;;;;;;21.90;37.50;;;;;;5078000;28;19912;-67
2023/10/18 12:40:28;;;;;;;;;;;22.10;36.80;;;;;;5078106;28;20361;-67
2023/10/18 12:42:58;;;;;;;;;;;22.50;36.80;;;;;;5077934;28;20415;-67
2023/10/18 12:45:23;;;;;;;;;;;22.70;35.50;;;;;;5077663;28;19917;-67
2023/10/18 12:47:51;;;;;;;;;;;22.70;36.30;;;;;;5077838;28;19962;-67
2023/10/18 12:50:22;;;;;;;;;;;22.60;37.60;;;;;;5077889;28;20003;-67
2023/10/18 12:52:52;;;;;;;;;;;22.50;36.60;;;;;;5078246;28;19920;-67
2023/10/18 12:55:36;;;;;;;;;;;21.90;35.50;;;;;;5077772;28;20088;-67
2023/10/18 12:58:06;;;;;;;;;;;22.10;37.80;;;;;;5077280;28;19913;-67
2023/10/18 13:00:42;;;;;;;;;;;22.20;37.50;;;;;;5077750;28;19916;-67
2023/10/18 13:05:40;;;;;;;;;;;22.60;36.10;;;;;;5077034;28;19908;-67
2023/10/18 13:08:16;;;;;;;;;;;22.70;36.00;;;;;;5077272;28;20054;-67
2023/10/18 13:10:48;;;;;;;;;;;22.60;35.70;;;;;;5077528;28;20294;-67
2023/10/18 13:13:16;;;;;;;;;;;22.40;37.10;;;;;;5077057;28;19917;-67
2023/10/18 13:15:44;;;;;;;;;;;22.70;37.10;;;;;;5077313;28;19912;-67
2023/10/18 13:18:11;;;;;;;;;;;22.70;36.60;;;;;;5094628;28;20368;-67
2023/10/18 13:20:37;;;;;;;;;;;23.10;36.30;;;;;;5096438;28;19934;-67
2023/10/18 13:23:09;;;;;;;;;;;22.60;36.60;;;;;;5097097;28;19916;-67
2023/10/18 13:25:37;;;;;;;;;;;22.00;36.90;;;;;;5097102;28;19912;-67
2023/10/18 13:28:06;;;;;;;;;;;22.20;37.80;;;;;;5097419;28;19916;-67
2023/10/18 13:30:32;;;;;;;;;;;22.30;37.80;;;;;;5097439;28;19923;-67
2023/10/18 13:33:01;;;;;;;;;;;22.50;37.70;;;;;;5096310;28;20381;-67
2023/10/18 13:35:28;;;;;;;;;;;22.90;36.40;;;;;;5097460;28;19955;-67
2023/10/18 13:37:55;;;;;;;;;;;22.90;35.90;;;;;;5112908;28;19916;-67
2023/10/18 13:40:20;;;;;;;;;;;22.60;36.20;;;;;;5097409;28;19999;-67
2023/10/18 13:42:46;;;;;;;;;;;22.50;38.20;;;;;;5097050;28;19954;-67
2023/10/18 13:45:15;;;;;;;;;;;22.40;38.40;;;;;;5097120;28;19923;-67
2023/10/18 13:47:41;;;;;;;;;;;22.80;37.00;;;;;;5097169;28;19912;-67
2023/10/18 13:50:10;;;;;;;;;;;22.80;36.60;;;;;;5097050;28;19920;-67
2023/10/18 13:52:36;;;;;;;;;;;22.20;36.60;;;;;;5097244;28;19912;-67
2023/10/18 13:55:02;;;;;;;;;;;22.10;37.30;;;;;;5096961;28;19999;-67
2023/10/18 13:57:28;;;;;;;;;;;22.10;38.00;;;;;;5096886;28;19951;-67
2023/10/18 13:59:54;;;;;;;;;;;22.20;38.20;;;;;;5095631;28;19916;-67
2023/10/18 14:02:26;;;;;;;;;;;22.10;38.20;;;;;;5096751;28;19916;-67
2023/10/18 14:04:54;;;;;;;;;;;21.90;38.80;;;;;;5096680;28;19963;-67
2023/10/18 14:07:21;;;;;;;;;;;21.00;41.10;;;;;;5096657;28;19912;-67
2023/10/18 14:09:47;;;;;;;;;;;21.10;40.90;;;;;;5096872;28;19945;-67
2023/10/18 14:12:13;;;;;;;;;;;21.50;39.70;;;;;;5089225;28;19943;-67
2023/10/18 14:14:39;;;;;;;;;;;21.80;40.10;;;;;;5076417;28;19913;-67
2023/10/18 14:17:04;;;;;;;;;;;21.90;39.60;;;;;;5084863;28;19918;-67
2023/10/18 14:19:32;;;;;;;;;;;21.60;38.60;;;;;;5096460;28;20333;-65
2023/10/18 14:21:58;;;;;;;;;;;21.30;40.10;;;;;;5096502;28;19912;-65
2023/10/18 14:24:25;;;;;;;;;;;21.50;40.50;;;;;;5096462;28;19923;-65
2023/10/18 14:26:51;;;;;;;;;;;21.30;40.00;;;;;;5096049;28;19916;-67
2023/10/18 14:29:17;;;;;;;;;;;21.20;43.10;;;;;;5096551;28;19915;-65
2023/10/18 14:31:43;;;;;;;;;;;21.20;41.10;;;;;;5096318;28;19922;-65
2023/10/18 14:34:08;;;;;;;;;;;20.90;41.30;;;;;;5096216;28;19963;-65
2023/10/18 14:36:34;;;;;;;;;;;20.90;40.80;;;;;;5096150;28;19912;-65
2023/10/18 14:39:00;;;;;;;;;;;20.80;40.80;;;;;;5096356;28;20270;-65
2023/10/18 14:41:26;;;;;;;;;;;20.70;41.90;;;;;;5096096;28;19912;-65
2023/10/18 14:43:54;;;;;;;;;;;20.40;43.00;;;;;;5095836;28;19912;-65
2023/10/18 14:46:23;;;;;;;;;;;20.30;43.10;;;;;;5096158;28;19908;-65
2023/10/18 14:48:53;;;;;;;;;;;20.20;43.10;;;;;;5096091;28;20365;-65
2023/10/18 14:51:21;;;;;;;;;;;19.90;45.30;;;;;;5096181;28;19912;-65
2023/10/18 14:53:48;;;;;;;;;;;19.90;44.70;;;;;;5096028;28;20319;-65
2023/10/18 14:56:15;;;;;;;;;;;19.70;45.80;;;;;;5080987;28;19917;-65
2023/10/18 14:58:41;;;;;;;;;;;19.40;46.80;;;;;;5075817;28;19920;-65
2023/10/18 15:01:13;;;;;;;;;;;19.10;47.10;;;;;;5075401;28;19927;-65
2023/10/18 15:03:39;;;;;;;;;;;19.20;48.30;;;;;;5075567;28;19916;-65
2023/10/18 15:06:08;;;;;;;;;;;18.90;47.80;;;;;;5075579;28;19912;-65
2023/10/18 15:08:37;;;;;;;;;;;18.80;48.60;;;;;;5075439;28;20373;-65
2023/10/18 15:11:12;;;;;;;;;;;18.70;48.90;;;;;;5075576;28;19912;-65
2023/10/18 15:13:37;;;;;;;;;;;18.50;50.50;;;;;;5075394;28;19959;-65
2023/10/18 15:16:06;;;;;;;;;;;18.20;52.40;;;;;;5075681;28;19917;-65
2023/10/18 15:18:34;;;;;;;;;;;18.00;52.60;;;;;;5055456;28;19912;-65
2023/10/18 15:20:59;;;;;;;;;;;17.70;53.30;;;;;;5055463;28;19913;-65
2023/10/18 15:23:26;;;;;;;;;;;17.50;54.70;;;;;;5055560;28;19912;-65
2023/10/18 15:25:52;;;;;;;;;;;17.20;56.40;;;;;;5055229;28;19916;-65
2023/10/18 15:28:17;;;;;;;;;;;16.80;57.30;;;;;;5055520;28;19921;-65
2023/10/18 15:30:43;;;;;;;;;;;16.30;59.20;;;;;;5055499;28;19917;-65